createdAt,value
2023-05-10T00:00:24.077Z,98315.35
2023-05-10T00:03:11.523Z,98312.12
2023-05-10T00:05:41.564Z,98311.04
2023-05-10T00:08:10.303Z,98304.27
2023-05-10T00:10:39.807Z,98308.09
2023-05-10T00:13:08.922Z,98304.42
2023-05-10T00:15:39.091Z,98304.23
2023-05-10T00:18:09.067Z,98303.20
2023-05-10T00:20:37.622Z,98299.10
2023-05-10T00:23:06.792Z,98298.55
2023-05-10T00:25:35.246Z,98294.59
2023-05-10T00:28:05.803Z,98291.80
2023-05-10T00:30:34.424Z,98289.30
2023-05-10T00:33:04.104Z,98292.16
2023-05-10T00:35:32.601Z,98295.61
2023-05-10T00:38:01.138Z,98293.48
2023-05-10T00:40:31.923Z,98289.80
2023-05-10T00:43:13.971Z,98292.69
2023-05-10T00:45:42.665Z,98291.17
2023-05-10T00:48:11.440Z,98293.63
2023-05-10T00:50:41.169Z,98291.81
2023-05-10T00:53:11.423Z,98288.32
2023-05-10T00:55:40.146Z,98285.03
2023-05-10T00:58:08.746Z,98283.36
2023-05-10T01:00:43.054Z,98285.33
2023-05-10T01:03:13.066Z,98280.67
2023-05-10T01:05:45.033Z,98279.83
2023-05-10T01:08:15.686Z,98279.98
2023-05-10T01:10:45.368Z,98278.63
2023-05-10T01:13:14.737Z,98275.80
2023-05-10T01:15:43.357Z,98273.57
2023-05-10T01:18:13.113Z,98271.57
2023-05-10T01:20:49.971Z,98266.58
2023-05-10T01:23:30.255Z,98264.92
2023-05-10T01:26:36.444Z,98264.44
2023-05-10T01:29:05.280Z,98264.84
2023-05-10T01:32:27.513Z,98264.20
2023-05-10T01:35:04.315Z,98267.82
2023-05-10T01:37:37.680Z,98267.84
2023-05-10T01:40:28.756Z,98266.70
2023-05-10T01:43:05.217Z,98268.23
2023-05-10T01:45:47.493Z,98269.00
2023-05-10T01:48:18.523Z,98267.86
2023-05-10T01:50:50.151Z,98270.92
2023-05-10T01:53:21.665Z,98269.54
2023-05-10T01:55:54.667Z,98270.85
2023-05-10T01:58:33.712Z,98264.36
2023-05-10T02:01:06.168Z,98265.05
2023-05-10T02:03:37.328Z,98266.07
2023-05-10T02:06:08.300Z,98264.13
2023-05-10T02:08:39.059Z,98265.84
2023-05-10T02:11:09.850Z,98260.25
2023-05-10T02:13:40.845Z,98259.89
2023-05-10T02:16:09.993Z,98261.69
2023-05-10T02:18:41.134Z,98259.66
2023-05-10T02:21:11.606Z,98257.72
2023-05-10T02:23:41.414Z,98260.35
2023-05-10T02:26:11.887Z,98259.61
2023-05-10T02:28:42.157Z,98263.82
2023-05-10T02:31:12.235Z,98264.31
2023-05-10T02:33:44.541Z,98268.38
2023-05-10T02:36:14.815Z,98265.55
2023-05-10T02:38:44.981Z,98267.17
2023-05-10T02:41:14.579Z,98267.56
2023-05-10T02:43:45.682Z,98259.89
2023-05-10T02:46:15.600Z,98260.58
2023-05-10T02:48:44.333Z,98259.65
2023-05-10T02:51:15.248Z,98256.35
2023-05-10T02:53:47.854Z,98255.73
2023-05-10T02:56:26.923Z,98257.28
2023-05-10T02:58:56.942Z,98259.52
2023-05-10T03:01:25.467Z,98256.98
2023-05-10T03:03:54.582Z,98255.95
2023-05-10T03:06:24.166Z,98253.64
2023-05-10T03:08:52.791Z,98257.58
2023-05-10T03:11:39.471Z,98254.83
2023-05-10T03:14:45.419Z,98251.39
2023-05-10T03:17:36.156Z,98253.90
2023-05-10T03:20:11.315Z,98250.86
2023-05-10T03:22:48.105Z,98247.68
2023-05-10T03:25:19.481Z,98245.97
2023-05-10T03:27:51.385Z,98247.95
2023-05-10T03:30:23.097Z,98247.66
2023-05-10T03:32:52.582Z,98247.17
2023-05-10T03:35:21.258Z,98249.88
2023-05-10T03:37:50.175Z,98249.72
2023-05-10T03:40:18.893Z,98251.39
2023-05-10T03:42:48.061Z,98249.07
2023-05-10T03:45:17.185Z,98249.26
2023-05-10T03:47:46.124Z,98244.42
2023-05-10T03:50:15.243Z,98243.34
2023-05-10T03:52:45.473Z,98245.02
2023-05-10T03:55:14.036Z,98241.94
2023-05-10T03:57:42.816Z,98239.88
2023-05-10T04:00:12.481Z,98236.08
2023-05-10T04:02:45.884Z,98233.38
2023-05-10T04:05:20.832Z,98235.05
2023-05-10T04:07:52.191Z,98239.13
2023-05-10T04:10:21.956Z,98239.56
2023-05-10T04:12:50.540Z,98237.50
2023-05-10T04:15:18.986Z,98238.79
2023-05-10T04:17:47.764Z,98237.85
2023-05-10T04:20:16.666Z,98239.00
2023-05-10T04:22:45.569Z,98237.41
2023-05-10T04:25:14.110Z,98241.48
2023-05-10T04:27:43.400Z,98241.88
2023-05-10T04:30:12.380Z,98239.43
2023-05-10T04:32:40.931Z,98237.86
2023-05-10T04:35:11.394Z,98241.05
2023-05-10T04:37:40.184Z,98242.66
2023-05-10T04:40:14.027Z,98244.19
2023-05-10T04:42:43.427Z,98244.23
2023-05-10T04:45:12.080Z,98248.36
2023-05-10T04:47:40.472Z,98247.83
2023-05-10T04:50:09.659Z,98250.63
2023-05-10T04:52:37.966Z,98251.47
2023-05-10T04:55:08.646Z,98257.22
2023-05-10T04:57:37.838Z,98258.95
2023-05-10T05:00:07.127Z,98256.90
2023-05-10T05:02:36.072Z,98261.27
2023-05-10T05:05:04.634Z,98263.03
2023-05-10T05:07:33.089Z,98264.63
2023-05-10T05:10:02.384Z,98264.20
2023-05-10T05:12:30.611Z,98263.85
2023-05-10T05:14:59.086Z,98266.96
2023-05-10T05:17:27.407Z,98266.63
2023-05-10T05:19:55.501Z,98263.25
2023-05-10T05:22:29.064Z,98258.18
2023-05-10T05:25:03.459Z,98258.02
2023-05-10T05:27:33.235Z,98251.45
2023-05-10T05:30:01.571Z,98255.67
2023-05-10T05:32:30.060Z,98252.69
2023-05-10T05:34:58.319Z,98252.69
2023-05-10T05:37:26.560Z,98251.05
2023-05-10T05:39:56.067Z,98247.66
2023-05-10T05:42:24.589Z,98252.55
2023-05-10T05:44:53.778Z,98250.41
2023-05-10T05:47:23.020Z,98247.67
2023-05-10T05:49:52.041Z,98246.52
2023-05-10T05:52:20.495Z,98251.03
2023-05-10T05:54:49.779Z,98247.41
2023-05-10T05:57:18.150Z,98247.61
2023-05-10T05:59:46.863Z,98251.88
2023-05-10T06:02:15.060Z,98251.92
2023-05-10T06:04:44.823Z,98248.75
2023-05-10T06:07:13.662Z,98246.25
2023-05-10T06:09:44.418Z,98244.29
2023-05-10T06:12:15.107Z,98248.91
2023-05-10T06:14:43.441Z,98250.14
2023-05-10T06:17:11.759Z,98249.13
2023-05-10T06:19:39.949Z,98247.80
2023-05-10T06:22:08.682Z,98252.77
2023-05-10T06:24:37.234Z,98244.69
2023-05-10T06:27:05.507Z,98246.75
2023-05-10T06:29:33.930Z,98244.73
2023-05-10T06:32:02.421Z,98242.04
2023-05-10T06:34:30.834Z,98241.04
2023-05-10T06:36:59.295Z,98240.28
2023-05-10T06:39:27.461Z,98237.96
2023-05-10T06:41:56.174Z,98239.48
2023-05-10T06:44:24.309Z,98241.89
2023-05-10T06:46:57.517Z,98244.42
2023-05-10T06:49:29.206Z,98242.42
2023-05-10T06:51:57.697Z,98242.30
2023-05-10T06:54:27.066Z,98241.19
2023-05-10T06:56:55.996Z,98245.80
2023-05-10T06:59:25.751Z,98241.41
2023-05-10T07:01:58.983Z,98237.66
2023-05-10T07:04:28.842Z,98237.30
2023-05-10T07:07:16.250Z,98233.96
2023-05-10T07:10:05.812Z,98236.38
2023-05-10T07:13:39.399Z,98233.69
2023-05-10T07:16:09.040Z,98230.67
2023-05-10T07:18:59.278Z,98232.88
2023-05-10T07:21:38.675Z,98237.05
2023-05-10T07:24:28.959Z,98232.62
2023-05-10T07:28:05.436Z,98229.40
2023-05-10T07:30:11.080Z,98227.49
2023-05-10T07:32:40.795Z,98230.56
2023-05-10T07:35:28.907Z,98230.33
2023-05-10T07:38:09.390Z,98229.58
2023-05-10T07:40:38.165Z,98225.44
2023-05-10T07:43:13.103Z,98224.45
2023-05-10T07:45:41.441Z,98228.06
2023-05-10T07:48:11.027Z,98220.64
2023-05-10T07:50:39.782Z,98225.13
2023-05-10T07:53:08.692Z,98224.03
2023-05-10T07:55:37.388Z,98221.68
2023-05-10T07:58:05.662Z,98219.36
2023-05-10T08:00:34.012Z,98220.45
2023-05-10T08:03:02.382Z,98223.67
2023-05-10T08:05:33.975Z,98219.61
2023-05-10T08:08:03.513Z,98216.48
2023-05-10T08:10:31.698Z,98219.79
2023-05-10T08:12:59.926Z,98219.55
2023-05-10T08:15:28.213Z,98216.23
2023-05-10T08:17:56.888Z,98214.66
2023-05-10T08:20:27.495Z,98218.58
2023-05-10T08:22:56.377Z,98216.27
2023-05-10T08:25:24.956Z,98210.30
2023-05-10T08:27:53.295Z,98206.44
2023-05-10T08:30:21.635Z,98205.99
2023-05-10T08:32:49.910Z,98203.35
2023-05-10T08:35:18.348Z,98200.58
2023-05-10T08:37:46.691Z,98206.03
2023-05-10T08:40:16.596Z,98203.92
2023-05-10T08:42:59.742Z,98205.48
2023-05-10T08:45:32.114Z,98203.42
2023-05-10T08:48:06.185Z,98206.96
2023-05-10T08:50:37.797Z,98202.31
2023-05-10T08:53:11.162Z,98204.27
2023-05-10T08:55:41.366Z,98201.98
2023-05-10T08:58:11.184Z,98198.08
2023-05-10T09:00:39.521Z,98194.42
2023-05-10T09:03:08.245Z,98194.48
2023-05-10T09:05:37.651Z,98200.02
2023-05-10T09:08:07.720Z,98194.31
2023-05-10T09:10:36.899Z,98195.27
2023-05-10T09:13:09.035Z,98192.71
2023-05-10T09:15:50.040Z,98192.08
2023-05-10T09:18:18.451Z,98191.34
2023-05-10T09:20:47.271Z,98188.67
2023-05-10T09:23:16.465Z,98190.64
2023-05-10T09:25:44.973Z,98183.30
2023-05-10T09:28:16.220Z,98186.59
2023-05-10T09:30:44.777Z,98185.73
2023-05-10T09:33:12.971Z,98179.21
2023-05-10T09:35:41.742Z,98171.55
2023-05-10T09:38:11.459Z,98171.17
2023-05-10T09:40:39.808Z,98170.78
2023-05-10T09:43:09.045Z,98167.48
2023-05-10T09:45:42.227Z,98160.81
2023-05-10T09:48:11.992Z,98159.25
2023-05-10T09:50:40.383Z,98155.98
2023-05-10T09:53:17.367Z,98152.73
2023-05-10T09:55:48.980Z,98147.09
2023-05-10T09:58:17.509Z,98145.16
2023-05-10T10:00:55.574Z,98143.14
2023-05-10T10:03:25.367Z,98145.05
2023-05-10T10:05:54.382Z,98142.68
2023-05-10T10:08:23.174Z,98145.27
2023-05-10T10:10:56.118Z,98143.17
2023-05-10T10:13:24.527Z,98138.63
2023-05-10T10:15:56.150Z,98139.11
2023-05-10T10:18:28.248Z,98131.16
2023-05-10T10:20:57.638Z,98125.87
2023-05-10T10:23:26.336Z,98123.56
2023-05-10T10:26:04.719Z,98120.89
2023-05-10T10:29:05.831Z,98116.73
2023-05-10T10:31:59.371Z,98120.40
2023-05-10T10:34:31.586Z,98118.95
2023-05-10T10:37:05.842Z,98118.73
2023-05-10T10:39:34.413Z,98115.48
2023-05-10T10:42:04.528Z,98107.16
2023-05-10T10:44:35.569Z,98100.36
2023-05-10T10:47:15.854Z,98100.10
2023-05-10T10:49:52.476Z,98101.08
2023-05-10T10:52:31.179Z,98099.40
2023-05-10T10:55:15.189Z,98088.86
2023-05-10T10:58:01.976Z,98093.35
2023-05-10T11:00:32.654Z,98095.77
2023-05-10T11:03:20.825Z,98096.83
2023-05-10T11:05:52.364Z,98091.16
2023-05-10T11:08:34.012Z,98088.37
2023-05-10T11:11:08.399Z,98087.95
2023-05-10T11:13:51.564Z,98080.27
2023-05-10T11:16:25.378Z,98076.55
2023-05-10T11:18:57.767Z,98072.93
2023-05-10T11:21:27.140Z,98076.34
2023-05-10T11:23:57.765Z,98059.21
2023-05-10T11:26:38.452Z,98060.30
2023-05-10T11:29:07.389Z,98058.91
2023-05-10T11:31:36.303Z,98065.20
2023-05-10T11:34:04.809Z,98057.38
2023-05-10T11:36:37.578Z,98054.09
2023-05-10T11:39:07.149Z,98058.15
2023-05-10T11:41:35.426Z,98064.15
2023-05-10T11:44:03.694Z,98058.10
2023-05-10T11:46:32.303Z,98056.10
2023-05-10T11:49:03.103Z,98058.89
2023-05-10T11:51:36.944Z,98059.21
2023-05-10T11:54:10.559Z,98057.20
2023-05-10T11:56:41.886Z,98050.51
2023-05-10T11:59:10.322Z,98035.68
2023-05-10T12:01:38.988Z,98044.92
2023-05-10T12:04:18.237Z,98046.56
2023-05-10T12:06:58.245Z,98039.80
2023-05-10T12:09:39.544Z,98045.23
2023-05-10T12:12:18.240Z,98048.17
2023-05-10T12:14:52.310Z,98045.63
2023-05-10T12:17:20.834Z,98042.67
2023-05-10T12:19:49.697Z,98035.13
2023-05-10T12:22:22.228Z,98038.63
2023-05-10T12:24:51.639Z,98036.23
2023-05-10T12:27:20.259Z,98031.02
2023-05-10T12:29:49.429Z,98029.14
2023-05-10T12:32:17.633Z,98026.59
2023-05-10T12:34:48.196Z,98029.69
2023-05-10T12:37:16.416Z,98028.30
2023-05-10T12:39:45.853Z,98026.89
2023-05-10T12:42:14.162Z,98019.69
2023-05-10T12:44:42.477Z,98021.48
2023-05-10T12:47:10.749Z,98015.02
2023-05-10T12:49:39.479Z,98006.03
2023-05-10T12:52:07.794Z,98003.70
2023-05-10T12:54:36.561Z,98004.23
2023-05-10T12:57:04.783Z,98006.63
2023-05-10T12:59:32.963Z,98003.55
2023-05-10T13:02:01.124Z,98002.45
2023-05-10T13:04:29.292Z,97999.08
2023-05-10T13:07:00.016Z,97989.78
2023-05-10T13:09:31.587Z,97986.73
2023-05-10T13:11:59.878Z,97987.39
2023-05-10T13:14:28.207Z,97982.59
2023-05-10T13:16:56.733Z,97984.01
2023-05-10T13:19:25.043Z,97985.50
2023-05-10T13:21:53.312Z,97986.62
2023-05-10T13:24:21.544Z,97978.21
2023-05-10T13:26:49.852Z,97972.83
2023-05-10T13:29:19.201Z,97970.17
2023-05-10T13:31:47.655Z,97975.45
2023-05-10T13:34:15.922Z,97974.19
2023-05-10T13:36:44.113Z,97970.80
2023-05-10T13:39:12.689Z,97972.27
2023-05-10T13:41:40.980Z,97969.27
2023-05-10T13:44:09.461Z,97960.14
2023-05-10T13:46:38.970Z,97959.45
2023-05-10T13:49:07.208Z,97959.26
2023-05-10T13:51:35.703Z,97953.44
2023-05-10T13:54:04.393Z,97955.55
2023-05-10T13:56:32.594Z,97956.30
2023-05-10T13:59:02.975Z,97952.25
2023-05-10T14:01:34.111Z,97947.47
2023-05-10T14:04:02.306Z,97944.28
2023-05-10T14:06:31.113Z,97943.42
2023-05-10T14:08:59.395Z,97940.11
2023-05-10T14:11:27.470Z,97936.14
2023-05-10T14:13:55.987Z,97934.48
2023-05-10T14:16:24.303Z,97939.66
2023-05-10T14:18:52.458Z,97930.92
2023-05-10T14:21:21.018Z,97929.77
2023-05-10T14:23:49.131Z,97934.95
2023-05-10T14:26:17.241Z,97930.46
2023-05-10T14:28:46.866Z,97933.69
2023-05-10T14:31:15.720Z,97929.09
2023-05-10T14:33:47.170Z,97927.02
2023-05-10T14:36:15.286Z,97926.77
2023-05-10T14:38:43.717Z,97922.25
2023-05-10T14:41:17.543Z,97920.65
2023-05-10T14:43:45.860Z,97923.96
2023-05-10T14:46:14.340Z,97923.90
2023-05-10T14:48:42.778Z,97928.17
2023-05-10T14:51:10.957Z,97927.16
2023-05-10T14:53:39.272Z,97928.77
2023-05-10T14:56:08.300Z,97925.43
2023-05-10T14:58:36.498Z,97917.45
2023-05-10T15:01:05.192Z,97918.34
2023-05-10T15:03:34.115Z,97925.27
2023-05-10T15:06:03.150Z,97923.14
2023-05-10T15:08:31.377Z,97921.15
2023-05-10T15:10:59.748Z,97924.41
2023-05-10T15:13:28.126Z,97925.69
2023-05-10T15:15:56.850Z,97919.42
2023-05-10T15:18:25.280Z,97919.23
2023-05-10T15:20:53.619Z,97915.98
2023-05-10T15:23:21.960Z,97912.63
2023-05-10T15:25:53.745Z,97913.92
2023-05-10T15:28:21.995Z,97916.33
2023-05-10T15:30:50.206Z,97912.60
2023-05-10T15:33:18.566Z,97916.84
2023-05-10T15:35:47.021Z,97916.08
2023-05-10T15:38:16.644Z,97911.33
2023-05-10T15:40:45.080Z,97912.29
2023-05-10T15:43:13.781Z,97913.64
2023-05-10T15:45:42.214Z,97915.08
2023-05-10T15:48:10.677Z,97918.61
2023-05-10T15:50:41.184Z,97915.55
2023-05-10T15:53:09.432Z,97918.02
2023-05-10T15:55:37.735Z,97914.52
2023-05-10T15:58:05.911Z,97916.23
2023-05-10T16:00:34.102Z,97915.39
2023-05-10T16:03:02.482Z,97915.29
2023-05-10T16:05:33.786Z,97911.98
2023-05-10T16:08:02.224Z,97910.08
2023-05-10T16:10:33.411Z,97913.67
2023-05-10T16:13:03.390Z,97909.46
2023-05-10T16:15:31.586Z,97912.21
2023-05-10T16:18:00.036Z,97915.35
2023-05-10T16:20:30.131Z,97912.56
2023-05-10T16:23:03.295Z,97909.95
2023-05-10T16:25:34.947Z,97910.23
2023-05-10T16:28:03.243Z,97908.92
2023-05-10T16:30:31.594Z,97909.59
2023-05-10T16:33:01.787Z,97907.85
2023-05-10T16:35:30.121Z,97908.56
2023-05-10T16:37:58.466Z,97909.24
2023-05-10T16:40:26.566Z,97910.48
2023-05-10T16:42:54.729Z,97917.17
2023-05-10T16:45:24.236Z,97922.09
2023-05-10T16:47:55.322Z,97924.76
2023-05-10T16:50:26.697Z,97928.43
2023-05-10T16:53:00.238Z,97927.48
2023-05-10T16:55:28.334Z,97926.52
2023-05-10T16:57:59.939Z,97926.27
2023-05-10T17:00:28.076Z,97929.05
2023-05-10T17:02:56.396Z,97932.81
2023-05-10T17:05:24.840Z,97931.77
2023-05-10T17:07:53.191Z,97931.83
2023-05-10T17:10:21.836Z,97932.79
2023-05-10T17:12:50.109Z,97939.83
2023-05-10T17:15:19.550Z,97940.73
2023-05-10T17:17:48.174Z,97940.04
2023-05-10T17:20:16.628Z,97944.91
2023-05-10T17:22:44.875Z,97945.07
2023-05-10T17:25:13.326Z,97944.86
2023-05-10T17:27:41.467Z,97945.10
2023-05-10T17:30:09.930Z,97948.33
2023-05-10T17:32:38.825Z,97945.15
2023-05-10T17:35:07.302Z,97944.58
2023-05-10T17:37:36.285Z,97953.74
2023-05-10T17:40:06.025Z,97952.34
2023-05-10T17:42:34.120Z,97952.46
2023-05-10T17:45:02.347Z,97952.11
2023-05-10T17:47:30.912Z,97954.92
2023-05-10T17:49:58.991Z,97955.95
2023-05-10T17:52:27.142Z,97959.89
2023-05-10T17:54:55.385Z,97965.92
2023-05-10T17:57:24.462Z,97969.34
2023-05-10T17:59:55.988Z,97972.52
2023-05-10T18:02:25.168Z,97974.12
2023-05-10T18:04:59.720Z,97976.42
2023-05-10T18:07:30.104Z,97981.10
2023-05-10T18:09:58.653Z,97984.01
2023-05-10T18:12:27.022Z,97987.29
2023-05-10T18:14:55.180Z,97989.19
2023-05-10T18:17:23.543Z,97994.23
2023-05-10T18:19:51.913Z,97997.56
2023-05-10T18:22:20.100Z,98001.35
2023-05-10T18:24:48.887Z,98005.70
2023-05-10T18:27:17.190Z,98013.09
2023-05-10T18:29:45.463Z,98014.50
2023-05-10T18:32:13.799Z,98014.90
2023-05-10T18:34:42.124Z,98014.61
2023-05-10T18:37:10.931Z,98014.03
2023-05-10T18:39:39.553Z,98018.96
2023-05-10T18:42:08.686Z,98022.12
2023-05-10T18:44:37.111Z,98023.21
2023-05-10T18:47:05.255Z,98022.42
2023-05-10T18:49:33.392Z,98019.27
2023-05-10T18:52:01.616Z,98018.50
2023-05-10T18:54:30.296Z,98023.12
2023-05-10T18:56:59.027Z,98026.17
2023-05-10T18:59:28.200Z,98029.77
2023-05-10T19:01:57.507Z,98030.45
2023-05-10T19:04:26.093Z,98028.61
2023-05-10T19:06:55.810Z,98034.05
2023-05-10T19:09:26.670Z,98035.80
2023-05-10T19:11:54.937Z,98033.48
2023-05-10T19:14:25.049Z,98038.77
2023-05-10T19:16:54.461Z,98040.44
2023-05-10T19:19:24.946Z,98041.20
2023-05-10T19:21:53.276Z,98043.10
2023-05-10T19:24:23.532Z,98045.79
2023-05-10T19:26:52.340Z,98048.23
2023-05-10T19:29:20.927Z,98051.98
2023-05-10T19:31:49.619Z,98051.05
2023-05-10T19:34:18.073Z,98051.20
2023-05-10T19:36:46.408Z,98055.48
2023-05-10T19:39:15.111Z,98053.34
2023-05-10T19:41:43.362Z,98056.39
2023-05-10T19:44:11.533Z,98055.91
2023-05-10T19:46:40.750Z,98056.90
2023-05-10T19:49:09.835Z,98058.80
2023-05-10T19:51:37.908Z,98059.88
2023-05-10T19:54:06.323Z,98058.55
2023-05-10T19:56:34.939Z,98054.16
2023-05-10T19:59:03.867Z,98055.52
2023-05-10T20:01:33.033Z,98060.16
2023-05-10T20:04:01.492Z,98061.69
2023-05-10T20:06:29.945Z,98057.54
2023-05-10T20:08:58.332Z,98060.65
2023-05-10T20:11:26.554Z,98059.94
2023-05-10T20:13:54.671Z,98061.83
2023-05-10T20:16:25.078Z,98062.71
2023-05-10T20:18:55.359Z,98059.77
2023-05-10T20:21:24.121Z,98063.41
2023-05-10T20:23:52.369Z,98063.14
2023-05-10T20:26:21.655Z,98065.94
2023-05-10T20:28:50.919Z,98067.88
2023-05-10T20:31:19.165Z,98062.99
2023-05-10T20:33:47.289Z,98069.16
2023-05-10T20:36:15.394Z,98070.35
2023-05-10T20:38:43.661Z,98068.86
2023-05-10T20:41:11.828Z,98064.22
2023-05-10T20:43:40.076Z,98068.63
2023-05-10T20:46:08.383Z,98069.15
2023-05-10T20:48:36.590Z,98068.24
2023-05-10T20:51:04.700Z,98071.06
2023-05-10T20:53:32.754Z,98074.95
2023-05-10T20:56:00.809Z,98073.79
2023-05-10T20:58:28.920Z,98071.46
2023-05-10T21:00:57.117Z,98069.43
2023-05-10T21:03:25.469Z,98069.99
2023-05-10T21:05:55.599Z,98074.14
2023-05-10T21:08:23.878Z,98079.70
2023-05-10T21:10:52.002Z,98087.39
2023-05-10T21:13:20.149Z,98089.19
2023-05-10T21:15:48.223Z,98086.61
2023-05-10T21:18:16.654Z,98087.98
2023-05-10T21:20:44.862Z,98086.69
2023-05-10T21:23:13.000Z,98089.85
2023-05-10T21:25:41.183Z,98087.89
2023-05-10T21:28:09.263Z,98084.20
2023-05-10T21:30:37.347Z,98090.72
2023-05-10T21:33:05.646Z,98090.74
2023-05-10T21:35:33.916Z,98088.33
2023-05-10T21:38:02.336Z,98086.99
2023-05-10T21:40:56.090Z,98089.98
2023-05-10T21:43:24.224Z,98089.23
2023-05-10T21:45:52.500Z,98090.34
2023-05-10T21:48:21.145Z,98090.18
2023-05-10T21:50:49.251Z,98094.77
2023-05-10T21:53:17.866Z,98096.10
2023-05-10T21:55:45.950Z,98099.61
2023-05-10T21:58:14.098Z,98099.76
2023-05-10T22:00:42.324Z,98102.86
2023-05-10T22:03:10.701Z,98105.88
2023-05-10T22:05:39.266Z,98104.79
2023-05-10T22:08:07.976Z,98107.69
2023-05-10T22:10:36.080Z,98111.02
2023-05-10T22:13:04.256Z,98114.25
2023-05-10T22:15:34.116Z,98112.97
2023-05-10T22:18:03.948Z,98114.20
2023-05-10T22:20:32.626Z,98115.96
2023-05-10T22:23:01.092Z,98118.10
2023-05-10T22:25:29.296Z,98123.52
2023-05-10T22:27:57.441Z,98118.27
2023-05-10T22:30:25.979Z,98116.63
2023-05-10T22:32:54.312Z,98113.48
2023-05-10T22:35:22.555Z,98115.98
2023-05-10T22:37:50.685Z,98116.70
2023-05-10T22:40:19.018Z,98118.92
2023-05-10T22:42:47.515Z,98119.79
2023-05-10T22:45:15.761Z,98117.91
2023-05-10T22:47:43.972Z,98117.45
2023-05-10T22:50:12.557Z,98112.52
2023-05-10T22:52:40.672Z,98111.61
2023-05-10T22:55:09.819Z,98112.73
2023-05-10T22:57:38.314Z,98108.14
2023-05-10T23:00:07.922Z,98108.66
2023-05-10T23:02:36.041Z,98107.03
2023-05-10T23:05:05.864Z,98102.95
2023-05-10T23:07:34.281Z,98102.84
2023-05-10T23:10:02.484Z,98100.83
2023-05-10T23:12:31.533Z,98103.41
2023-05-10T23:14:59.722Z,98103.50
2023-05-10T23:17:27.841Z,98104.52
2023-05-10T23:19:56.020Z,98105.16
2023-05-10T23:22:24.152Z,98108.26
2023-05-10T23:24:52.326Z,98109.73
2023-05-10T23:27:20.375Z,98107.59
2023-05-10T23:29:52.484Z,98107.04
2023-05-10T23:32:20.540Z,98106.41
2023-05-10T23:34:48.851Z,98109.92
2023-05-10T23:37:17.530Z,98107.96
2023-05-10T23:39:46.183Z,98105.39
2023-05-10T23:42:14.478Z,98104.48
2023-05-10T23:44:42.617Z,98104.02
2023-05-10T23:47:11.082Z,98105.73
2023-05-10T23:49:42.073Z,98109.82
2023-05-10T23:52:10.518Z,98105.92
2023-05-10T23:54:38.829Z,98105.01
2023-05-10T23:57:06.937Z,98105.58
2023-05-10T23:59:34.996Z,98108.55
